createdAt,value
2022-10-18T00:00:02.621Z,80.30
2022-10-18T00:02:29.450Z,80.30
2022-10-18T00:04:56.275Z,80.50
2022-10-18T00:07:23.074Z,80.60
2022-10-18T00:09:49.892Z,80.60
2022-10-18T00:12:16.799Z,80.70
2022-10-18T00:14:43.594Z,80.70
2022-10-18T00:17:10.686Z,80.70
2022-10-18T00:19:37.513Z,80.80
2022-10-18T00:22:04.366Z,82.20
2022-10-18T00:24:31.158Z,82.00
2022-10-18T00:26:57.980Z,81.80
2022-10-18T00:29:24.827Z,82.20
2022-10-18T00:31:51.617Z,81.80
2022-10-18T00:34:18.435Z,82.20
2022-10-18T00:36:45.698Z,82.00
2022-10-18T00:39:19.242Z,82.10
2022-10-18T00:41:46.899Z,82.10
2022-10-18T00:44:13.668Z,82.00
2022-10-18T00:46:43.011Z,81.90
2022-10-18T00:49:20.763Z,82.00
2022-10-18T00:51:57.027Z,81.60
2022-10-18T00:54:24.790Z,81.90
2022-10-18T00:56:51.768Z,82.10
2022-10-18T00:59:20.074Z,82.50
2022-10-18T01:01:47.465Z,82.50
2022-10-18T01:04:15.871Z,82.10
2022-10-18T01:06:51.067Z,82.20
2022-10-18T01:09:20.608Z,82.20
2022-10-18T01:12:11.416Z,82.00
2022-10-18T01:15:04.033Z,81.70
2022-10-18T01:17:46.938Z,81.60
2022-10-18T01:20:32.391Z,82.10
2022-10-18T01:23:19.180Z,81.70
2022-10-18T01:25:58.532Z,81.70
2022-10-18T01:28:40.038Z,81.80
2022-10-18T01:31:21.550Z,81.90
2022-10-18T01:33:57.908Z,82.00
2022-10-18T01:36:32.066Z,82.00
2022-10-18T01:39:03.290Z,82.20
2022-10-18T01:41:30.737Z,81.90
2022-10-18T01:44:01.944Z,82.00
2022-10-18T01:46:29.985Z,81.80
2022-10-18T01:48:58.018Z,82.00
2022-10-18T01:51:30.172Z,82.30
2022-10-18T01:53:57.364Z,82.20
2022-10-18T01:56:29.879Z,82.20
2022-10-18T01:59:08.258Z,82.10
2022-10-18T02:02:01.882Z,81.80
2022-10-18T02:04:38.730Z,81.80
2022-10-18T02:07:34.251Z,82.30
2022-10-18T02:10:33.133Z,82.20
2022-10-18T02:13:00.660Z,82.10
2022-10-18T02:15:33.527Z,82.40
2022-10-18T02:18:03.539Z,82.60
2022-10-18T02:20:32.549Z,82.40
2022-10-18T02:23:01.753Z,82.10
2022-10-18T02:25:32.667Z,82.20
2022-10-18T02:28:01.593Z,82.20
2022-10-18T02:30:41.555Z,82.30
2022-10-18T02:33:14.797Z,82.10
2022-10-18T02:35:47.671Z,82.20
2022-10-18T02:38:17.021Z,82.10
2022-10-18T02:40:43.802Z,82.60
2022-10-18T02:43:10.771Z,82.50
2022-10-18T02:45:38.282Z,82.30
2022-10-18T02:48:05.212Z,82.50
2022-10-18T02:50:32.101Z,82.30
2022-10-18T02:52:58.862Z,82.50
2022-10-18T02:55:25.742Z,82.80
2022-10-18T02:57:52.625Z,82.30
2022-10-18T03:00:19.439Z,82.60
2022-10-18T03:02:46.264Z,82.30
2022-10-18T03:05:13.130Z,82.50
2022-10-18T03:07:39.996Z,82.30
2022-10-18T03:10:07.451Z,81.90
2022-10-18T03:12:34.286Z,82.20
2022-10-18T03:15:01.084Z,82.20
2022-10-18T03:17:27.992Z,82.30
2022-10-18T03:19:54.853Z,81.80
2022-10-18T03:22:21.820Z,82.30
2022-10-18T03:24:48.695Z,82.10
2022-10-18T03:27:15.507Z,81.90
2022-10-18T03:29:42.354Z,82.10
2022-10-18T03:32:09.117Z,81.90
2022-10-18T03:34:35.936Z,81.90
2022-10-18T03:37:04.816Z,82.00
2022-10-18T03:39:32.363Z,81.90
2022-10-18T03:41:59.201Z,82.00
2022-10-18T03:44:26.015Z,82.00
2022-10-18T03:46:52.835Z,82.10
2022-10-18T03:49:19.743Z,81.60
2022-10-18T03:51:46.602Z,81.80
2022-10-18T03:54:13.520Z,82.10
2022-10-18T03:56:40.414Z,82.00
2022-10-18T03:59:07.252Z,82.00
2022-10-18T04:01:34.069Z,81.90
2022-10-18T04:04:00.924Z,82.00
2022-10-18T04:06:27.742Z,81.80
2022-10-18T04:08:55.466Z,81.80
2022-10-18T04:11:22.281Z,82.00
2022-10-18T04:13:50.405Z,82.30
2022-10-18T04:16:17.195Z,82.00
2022-10-18T04:18:44.009Z,82.00
2022-10-18T04:21:10.828Z,81.80
2022-10-18T04:23:38.854Z,81.90
2022-10-18T04:26:06.538Z,81.80
2022-10-18T04:28:34.888Z,82.10
2022-10-18T04:31:01.835Z,82.10
2022-10-18T04:33:28.661Z,82.00
2022-10-18T04:35:55.468Z,81.90
2022-10-18T04:38:24.284Z,82.10
2022-10-18T04:40:51.093Z,81.80
2022-10-18T04:43:18.005Z,81.70
2022-10-18T04:45:48.218Z,82.00
2022-10-18T04:48:15.323Z,82.00
2022-10-18T04:50:42.178Z,81.90
2022-10-18T04:53:08.998Z,81.80
2022-10-18T04:55:35.882Z,81.90
2022-10-18T04:58:02.788Z,82.00
2022-10-18T05:00:29.606Z,82.10
2022-10-18T05:02:57.993Z,82.00
2022-10-18T05:05:33.151Z,82.00
2022-10-18T05:08:13.225Z,82.30
2022-10-18T05:10:40.258Z,82.40
2022-10-18T05:13:07.566Z,82.30
2022-10-18T05:15:34.395Z,82.50
2022-10-18T05:18:01.189Z,82.20
2022-10-18T05:20:28.131Z,82.30
2022-10-18T05:22:54.961Z,82.20
2022-10-18T05:25:22.921Z,82.40
2022-10-18T05:27:49.818Z,82.40
2022-10-18T05:30:16.716Z,82.40
2022-10-18T05:32:43.574Z,82.30
2022-10-18T05:35:10.363Z,82.50
2022-10-18T05:37:37.141Z,82.20
2022-10-18T05:40:04.467Z,82.30
2022-10-18T05:42:31.496Z,82.30
2022-10-18T05:44:58.475Z,82.50
2022-10-18T05:47:25.302Z,82.50
2022-10-18T05:49:52.136Z,82.60
2022-10-18T05:52:18.999Z,82.60
2022-10-18T05:54:45.824Z,82.70
2022-10-18T05:57:12.668Z,82.70
2022-10-18T05:59:39.527Z,82.70
2022-10-18T06:02:06.833Z,82.60
2022-10-18T06:04:34.891Z,82.90
2022-10-18T06:07:01.714Z,82.70
2022-10-18T06:09:30.633Z,82.80
2022-10-18T06:11:57.826Z,83.10
2022-10-18T06:14:24.717Z,82.90
2022-10-18T06:16:51.571Z,82.70
2022-10-18T06:19:18.460Z,82.90
2022-10-18T06:21:45.244Z,82.80
2022-10-18T06:24:12.046Z,82.70
2022-10-18T06:26:38.899Z,82.40
2022-10-18T06:29:05.820Z,82.60
2022-10-18T06:31:32.771Z,82.40
2022-10-18T06:33:59.608Z,82.30
2022-10-18T06:36:26.771Z,82.30
2022-10-18T06:38:54.095Z,82.30
2022-10-18T06:41:22.079Z,82.20
2022-10-18T06:43:50.940Z,81.90
2022-10-18T06:46:17.787Z,82.20
2022-10-18T06:48:44.931Z,82.20
2022-10-18T06:51:12.054Z,81.80
2022-10-18T06:53:44.528Z,82.00
2022-10-18T06:56:20.181Z,82.00
2022-10-18T06:58:47.066Z,82.00
2022-10-18T07:01:17.248Z,81.80
2022-10-18T07:03:45.257Z,81.80
2022-10-18T07:06:14.544Z,82.00
2022-10-18T07:08:41.319Z,82.10
2022-10-18T07:11:09.367Z,82.00
2022-10-18T07:13:36.257Z,82.10
2022-10-18T07:16:07.356Z,81.80
2022-10-18T07:18:35.703Z,81.80
2022-10-18T07:21:04.131Z,82.00
2022-10-18T07:23:36.300Z,82.20
2022-10-18T07:26:05.414Z,82.20
2022-10-18T07:28:32.255Z,82.00
2022-10-18T07:31:06.189Z,82.00
2022-10-18T07:33:33.894Z,81.90
2022-10-18T07:36:06.363Z,81.90
2022-10-18T07:38:33.633Z,81.90
2022-10-18T07:41:02.267Z,82.00
2022-10-18T07:43:29.687Z,81.80
2022-10-18T07:46:02.090Z,81.80
2022-10-18T07:48:29.610Z,81.90
2022-10-18T07:51:02.166Z,82.20
2022-10-18T07:53:29.736Z,82.20
2022-10-18T07:56:03.381Z,82.10
2022-10-18T07:58:33.855Z,81.90
2022-10-18T08:01:07.610Z,82.00
2022-10-18T08:03:35.704Z,82.20
2022-10-18T08:06:03.423Z,82.30
2022-10-18T08:08:30.491Z,81.90
2022-10-18T08:11:07.121Z,81.90
2022-10-18T08:13:34.157Z,82.00
2022-10-18T08:16:09.194Z,81.80
2022-10-18T08:18:36.905Z,81.80
2022-10-18T08:21:06.173Z,80.30
2022-10-18T08:23:33.640Z,80.50
2022-10-18T08:26:09.640Z,80.10
2022-10-18T08:28:37.331Z,80.00
2022-10-18T08:31:06.180Z,79.90
2022-10-18T08:33:34.883Z,80.00
2022-10-18T08:36:05.837Z,79.70
2022-10-18T08:38:37.324Z,79.40
2022-10-18T08:41:51.928Z,79.40
2022-10-18T08:44:33.334Z,78.90
2022-10-18T08:47:07.054Z,79.10
2022-10-18T08:49:46.611Z,78.80
2022-10-18T08:52:31.585Z,78.90
2022-10-18T08:55:30.124Z,79.00
2022-10-18T08:57:58.403Z,78.50
2022-10-18T09:00:34.502Z,78.50
2022-10-18T09:03:30.156Z,78.10
2022-10-18T09:06:25.001Z,78.10
2022-10-18T09:09:00.010Z,77.90
2022-10-18T09:12:18.429Z,78.00
2022-10-18T09:14:54.539Z,77.90
2022-10-18T09:17:37.024Z,77.50
2022-10-18T09:20:15.827Z,77.70
2022-10-18T09:22:53.327Z,77.50
2022-10-18T09:25:23.704Z,77.50
2022-10-18T09:27:52.391Z,76.90
2022-10-18T09:30:35.750Z,77.00
2022-10-18T09:33:17.228Z,77.00
2022-10-18T09:35:52.542Z,76.70
2022-10-18T09:41:07.388Z,76.20
2022-10-18T09:44:10.583Z,76.20
2022-10-18T09:46:43.820Z,76.00
2022-10-18T09:49:18.674Z,75.70
2022-10-18T09:51:48.612Z,75.60
2022-10-18T09:54:37.945Z,75.20
2022-10-18T09:57:23.892Z,75.40
2022-10-18T09:59:51.118Z,75.00
2022-10-18T10:02:23.760Z,74.60
2022-10-18T10:04:51.316Z,73.00
2022-10-18T10:07:19.588Z,74.00
2022-10-18T10:10:06.190Z,73.00
2022-10-18T10:12:35.522Z,72.60
2022-10-18T10:15:23.252Z,72.30
2022-10-18T10:18:22.558Z,71.40
2022-10-18T10:20:52.990Z,71.40
2022-10-18T10:23:27.116Z,71.20
2022-10-18T10:25:56.838Z,71.10
2022-10-18T10:28:28.939Z,70.40
2022-10-18T10:31:24.725Z,70.10
2022-10-18T10:34:12.434Z,70.50
2022-10-18T10:36:54.157Z,69.90
2022-10-18T10:39:23.528Z,70.00
2022-10-18T10:41:57.343Z,69.70
2022-10-18T10:44:25.347Z,69.40
2022-10-18T10:46:53.419Z,70.20
2022-10-18T10:49:40.964Z,69.80
2022-10-18T10:52:28.960Z,69.60
2022-10-18T10:57:47.635Z,68.90
2022-10-18T11:00:43.897Z,69.10
2022-10-18T11:03:34.283Z,69.30
2022-10-18T11:06:02.019Z,69.30
2022-10-18T11:08:38.719Z,69.40
2022-10-18T11:11:23.309Z,69.30
2022-10-18T11:14:13.803Z,69.30
2022-10-18T11:17:08.135Z,68.80
2022-10-18T11:20:23.813Z,69.00
2022-10-18T11:22:56.430Z,68.70
2022-10-18T11:25:29.017Z,69.00
2022-10-18T11:28:05.552Z,68.10
2022-10-18T11:31:00.706Z,68.50
2022-10-18T11:34:03.631Z,68.50
2022-10-18T11:37:25.862Z,68.40
2022-10-18T11:40:24.475Z,68.00
2022-10-18T11:42:56.281Z,67.90
2022-10-18T11:45:56.792Z,68.00
2022-10-18T11:48:38.039Z,68.00
2022-10-18T11:51:34.346Z,67.00
2022-10-18T11:54:35.586Z,67.00
2022-10-18T11:57:02.424Z,66.50
2022-10-18T11:59:48.640Z,66.50
2022-10-18T12:02:49.290Z,66.70
2022-10-18T12:05:24.937Z,66.40
2022-10-18T12:08:13.511Z,66.60
2022-10-18T12:10:46.098Z,66.50
2022-10-18T12:13:48.141Z,66.20
2022-10-18T12:16:16.727Z,66.10
2022-10-18T12:19:08.846Z,65.80
2022-10-18T12:21:37.193Z,66.40
2022-10-18T12:24:19.466Z,66.40
2022-10-18T12:26:48.761Z,66.50
2022-10-18T12:29:27.586Z,65.90
2022-10-18T12:32:03.648Z,66.50
2022-10-18T12:34:56.869Z,66.40
2022-10-18T12:37:48.388Z,64.70
2022-10-18T12:40:25.766Z,64.70
2022-10-18T12:42:53.535Z,64.40
2022-10-18T12:45:30.263Z,64.70
2022-10-18T12:48:02.216Z,64.90
2022-10-18T12:50:34.965Z,64.10
2022-10-18T12:53:05.221Z,64.30
2022-10-18T12:55:38.230Z,64.10
2022-10-18T12:58:25.349Z,64.40
2022-10-18T13:00:57.758Z,64.20
2022-10-18T13:03:27.753Z,64.20
2022-10-18T13:06:01.797Z,64.10
2022-10-18T13:08:36.460Z,63.30
2022-10-18T13:11:09.777Z,63.50
2022-10-18T13:14:06.523Z,64.00
2022-10-18T13:16:57.804Z,63.20
2022-10-18T13:20:24.110Z,63.30
2022-10-18T13:23:08.488Z,63.40
2022-10-18T13:25:53.972Z,63.80
2022-10-18T13:28:49.335Z,63.30
2022-10-18T13:31:38.187Z,63.30
2022-10-18T13:34:28.099Z,63.40
2022-10-18T13:37:03.784Z,63.50
2022-10-18T13:39:32.220Z,62.80
2022-10-18T13:42:00.865Z,62.90
2022-10-18T13:44:38.309Z,63.10
2022-10-18T13:47:05.136Z,63.30
2022-10-18T13:49:59.450Z,63.60
2022-10-18T13:52:50.212Z,63.40
2022-10-18T13:55:43.190Z,63.60
2022-10-18T13:58:34.000Z,63.40
2022-10-18T14:01:29.497Z,63.90
2022-10-18T14:04:14.069Z,63.30
2022-10-18T14:06:43.735Z,63.20
2022-10-18T14:09:45.337Z,63.00
2022-10-18T14:12:21.799Z,62.90
2022-10-18T14:14:56.360Z,62.60
2022-10-18T14:17:43.137Z,62.20
2022-10-18T14:20:24.798Z,62.60
2022-10-18T14:23:01.294Z,61.70
2022-10-18T14:25:28.097Z,61.20
2022-10-18T14:28:36.372Z,60.80
2022-10-18T14:31:17.998Z,61.30
2022-10-18T14:33:56.416Z,61.10
2022-10-18T14:36:27.330Z,63.00
2022-10-18T14:39:00.438Z,62.80
2022-10-18T14:41:27.191Z,63.20
2022-10-18T14:44:16.542Z,62.50
2022-10-18T14:46:45.176Z,62.10
2022-10-18T14:49:13.698Z,62.40
2022-10-18T14:51:44.041Z,62.50
2022-10-18T14:54:19.375Z,62.50
2022-10-18T14:56:46.724Z,62.20
2022-10-18T14:59:40.368Z,61.90
2022-10-18T15:02:14.896Z,62.30
2022-10-18T15:04:44.949Z,62.20
2022-10-18T15:07:17.666Z,61.90
2022-10-18T15:09:45.792Z,62.40
2022-10-18T15:12:15.113Z,62.60
2022-10-18T15:14:42.737Z,63.10
2022-10-18T15:17:15.053Z,63.40
2022-10-18T15:20:06.211Z,63.30
2022-10-18T15:22:34.248Z,62.50
2022-10-18T15:25:14.863Z,62.50
2022-10-18T15:27:48.006Z,62.70
2022-10-18T15:30:23.779Z,62.70
2022-10-18T15:32:54.353Z,62.60
2022-10-18T15:35:26.866Z,63.10
2022-10-18T15:37:55.859Z,63.30
2022-10-18T15:40:22.639Z,63.60
2022-10-18T15:42:51.396Z,63.60
2022-10-18T15:45:24.251Z,64.00
2022-10-18T15:48:06.184Z,63.80
2022-10-18T15:50:38.464Z,64.30
2022-10-18T15:53:32.718Z,63.90
2022-10-18T15:56:35.172Z,64.20
2022-10-18T15:59:06.133Z,64.50
2022-10-18T16:01:38.380Z,64.90
2022-10-18T16:04:10.762Z,65.00
2022-10-18T16:06:38.736Z,66.00
2022-10-18T16:09:05.940Z,65.90
2022-10-18T16:11:32.826Z,65.50
2022-10-18T16:14:00.647Z,66.00
2022-10-18T16:16:29.136Z,66.30
2022-10-18T16:18:57.278Z,66.70
2022-10-18T16:21:29.627Z,66.90
2022-10-18T16:23:56.909Z,66.90
2022-10-18T16:26:25.900Z,67.20
2022-10-18T16:28:54.158Z,67.40
2022-10-18T16:31:24.051Z,68.00
2022-10-18T16:33:52.219Z,68.30
2022-10-18T16:36:30.815Z,68.50
2022-10-18T16:39:00.835Z,68.70
2022-10-18T16:41:28.447Z,69.80
2022-10-18T16:43:55.551Z,69.80
2022-10-18T16:46:27.312Z,69.80
2022-10-18T16:48:54.686Z,70.10
2022-10-18T16:51:21.945Z,70.30
2022-10-18T16:53:49.198Z,70.40
2022-10-18T16:56:22.726Z,70.80
2022-10-18T16:58:50.396Z,70.90
2022-10-18T17:01:19.381Z,71.80
2022-10-18T17:03:46.877Z,71.80
2022-10-18T17:06:30.591Z,71.80
2022-10-18T17:08:57.944Z,71.80
2022-10-18T17:11:27.435Z,72.80
2022-10-18T17:13:54.815Z,73.40
2022-10-18T17:16:30.792Z,73.40
2022-10-18T17:18:59.780Z,73.70
2022-10-18T17:21:27.435Z,73.80
2022-10-18T17:23:54.642Z,74.30
2022-10-18T17:26:28.768Z,74.50
2022-10-18T17:29:00.033Z,74.70
2022-10-18T17:31:28.075Z,74.70
2022-10-18T17:33:55.444Z,74.60
2022-10-18T17:36:22.642Z,75.10
2022-10-18T17:38:53.563Z,74.90
2022-10-18T17:41:20.915Z,75.10
2022-10-18T17:43:50.769Z,75.30
2022-10-18T17:46:18.160Z,75.70
2022-10-18T17:48:45.722Z,75.60
2022-10-18T17:51:15.468Z,75.60
2022-10-18T17:53:42.917Z,75.80
2022-10-18T17:56:11.222Z,75.70
2022-10-18T17:58:38.437Z,75.80
2022-10-18T18:01:09.566Z,77.20
2022-10-18T18:03:36.411Z,77.10
2022-10-18T18:06:22.483Z,77.30
2022-10-18T18:08:50.139Z,77.30
2022-10-18T18:11:18.006Z,77.90
2022-10-18T18:13:44.973Z,77.80
2022-10-18T18:16:16.412Z,77.90
2022-10-18T18:18:44.009Z,78.20
2022-10-18T18:21:11.297Z,78.10
2022-10-18T18:23:38.163Z,78.30
2022-10-18T18:26:05.312Z,78.30
2022-10-18T18:28:32.140Z,78.20
2022-10-18T18:30:58.975Z,78.50
2022-10-18T18:33:25.823Z,78.40
2022-10-18T18:35:56.998Z,78.40
2022-10-18T18:38:25.096Z,78.50
2022-10-18T18:41:09.787Z,78.60
2022-10-18T18:43:37.747Z,78.40
2022-10-18T18:46:05.303Z,78.70
2022-10-18T18:48:33.927Z,78.60
2022-10-18T18:51:02.265Z,78.80
2022-10-18T18:53:29.947Z,79.10
2022-10-18T18:56:08.267Z,79.10
2022-10-18T18:58:36.865Z,78.80
2022-10-18T19:01:13.018Z,79.10
2022-10-18T19:03:40.722Z,79.00
2022-10-18T19:06:13.198Z,79.30
2022-10-18T19:08:40.618Z,79.30
2022-10-18T19:11:09.360Z,79.60
2022-10-18T19:13:36.733Z,79.40
2022-10-18T19:16:31.025Z,79.90
2022-10-18T19:19:05.051Z,79.30
2022-10-18T19:21:37.254Z,79.70
2022-10-18T19:24:05.339Z,80.00
2022-10-18T19:26:36.758Z,80.00
2022-10-18T19:29:13.118Z,80.00
2022-10-18T19:31:40.032Z,80.00
2022-10-18T19:34:09.184Z,80.50
2022-10-18T19:36:37.541Z,80.30
2022-10-18T19:39:07.150Z,80.40
2022-10-18T19:41:34.161Z,80.60
2022-10-18T19:44:01.103Z,80.80
2022-10-18T19:46:27.936Z,81.10
2022-10-18T19:48:55.025Z,81.10
2022-10-18T19:51:25.471Z,81.10
2022-10-18T19:53:56.550Z,80.90
2022-10-18T19:56:24.513Z,81.10
2022-10-18T19:58:52.388Z,81.20
2022-10-18T20:01:19.779Z,81.30
2022-10-18T20:03:47.576Z,81.20
2022-10-18T20:06:14.868Z,81.70
2022-10-18T20:11:12.716Z,81.90
2022-10-18T20:13:39.965Z,81.80
2022-10-18T20:16:08.946Z,81.80
2022-10-18T20:18:36.489Z,81.80
2022-10-18T20:21:07.804Z,82.00
2022-10-18T20:23:40.080Z,81.70
2022-10-18T20:26:18.230Z,82.00
2022-10-18T20:28:48.397Z,82.00
2022-10-18T20:31:18.218Z,81.90
2022-10-18T20:33:48.398Z,81.80
2022-10-18T20:36:17.636Z,82.00
2022-10-18T20:38:47.182Z,82.00
2022-10-18T20:41:16.584Z,81.80
2022-10-18T20:43:43.584Z,82.10
2022-10-18T20:46:11.509Z,82.00
2022-10-18T20:48:41.062Z,82.10
2022-10-18T20:51:10.452Z,82.30
2022-10-18T20:53:38.228Z,82.00
2022-10-18T20:56:06.875Z,82.10
2022-10-18T20:58:34.979Z,82.10
2022-10-18T21:01:22.726Z,82.30
2022-10-18T21:03:51.358Z,81.80
2022-10-18T21:06:21.498Z,82.10
2022-10-18T21:08:53.527Z,82.10
2022-10-18T21:11:20.467Z,81.80
2022-10-18T21:13:55.175Z,81.80
2022-10-18T21:16:22.457Z,81.80
2022-10-18T21:18:49.699Z,81.80
2022-10-18T21:21:18.182Z,82.00
2022-10-18T21:23:45.581Z,81.70
2022-10-18T21:26:15.689Z,82.10
2022-10-18T21:28:42.706Z,81.80
2022-10-18T21:31:18.069Z,82.20
2022-10-18T21:33:46.968Z,82.30
2022-10-18T21:36:14.543Z,82.30
2022-10-18T21:38:45.654Z,82.30
2022-10-18T21:41:16.107Z,82.10
2022-10-18T21:43:45.535Z,82.40
2022-10-18T21:46:14.183Z,82.40
2022-10-18T21:48:44.306Z,82.10
2022-10-18T21:51:12.255Z,82.40
2022-10-18T21:53:39.335Z,82.50
2022-10-18T21:56:11.860Z,82.20
2022-10-18T21:58:39.954Z,82.50
2022-10-18T22:01:11.668Z,82.40
2022-10-18T22:03:39.059Z,82.40
2022-10-18T22:06:09.359Z,82.30
2022-10-18T22:08:36.537Z,82.40
2022-10-18T22:11:04.869Z,82.60
2022-10-18T22:13:31.842Z,82.30
2022-10-18T22:16:03.796Z,82.40
2022-10-18T22:18:31.562Z,82.50
2022-10-18T22:21:04.641Z,82.50
2022-10-18T22:23:32.929Z,82.30
2022-10-18T22:26:08.863Z,82.50
2022-10-18T22:28:36.232Z,82.40
2022-10-18T22:31:03.215Z,82.70
2022-10-18T22:33:30.293Z,82.80
2022-10-18T22:35:57.153Z,82.70
2022-10-18T22:38:24.251Z,82.70
2022-10-18T22:40:51.899Z,82.70
2022-10-18T22:43:18.768Z,82.90
2022-10-18T22:45:45.532Z,83.00
2022-10-18T22:48:12.335Z,83.00
2022-10-18T22:50:39.220Z,82.90
2022-10-18T22:53:06.043Z,82.80
2022-10-18T22:55:32.860Z,82.70
2022-10-18T22:57:59.673Z,82.60
2022-10-18T23:00:26.563Z,82.60
2022-10-18T23:02:53.604Z,82.30
2022-10-18T23:05:20.447Z,82.50
2022-10-18T23:07:50.183Z,82.40
2022-10-18T23:10:17.413Z,82.60
2022-10-18T23:12:44.266Z,82.50
2022-10-18T23:15:11.395Z,82.40
2022-10-18T23:17:39.042Z,82.20
2022-10-18T23:20:06.615Z,82.40
2022-10-18T23:22:33.598Z,82.50
2022-10-18T23:25:00.554Z,82.30
2022-10-18T23:27:28.824Z,82.20
2022-10-18T23:29:56.099Z,82.10
2022-10-18T23:32:22.928Z,82.20
2022-10-18T23:34:49.763Z,82.10
2022-10-18T23:37:16.575Z,82.00
2022-10-18T23:39:43.432Z,81.90
2022-10-18T23:42:10.247Z,81.90
2022-10-18T23:44:37.082Z,81.40
2022-10-18T23:47:04.438Z,81.50
2022-10-18T23:49:31.439Z,81.60
2022-10-18T23:51:58.350Z,81.60
2022-10-18T23:54:25.219Z,81.30
2022-10-18T23:56:52.023Z,81.50
2022-10-18T23:59:18.905Z,81.30
